Litchfield, Maine
Current Conditions -  °F | °C
As of 2:53 AM on Sunday 21 Dec 2014 (Local Time) from KAUG Reporting Station
Overcast Overcast  
Wind Chill: 12°   Ceiling: 900
Heat Index: 21°   Visibility: 10mi
Dew Point: 18°   Wind: 7mph
Humidity: 88%   Direction: 340°NNW
Pressure: 30.35"   Gusts: NA
Location:  44.22°N, 69.94°W
Report Text: KAUG 210753Z AUTO 34006KT 10SM OVC009 M06/M08 A3035 RMK AO2 SLP285 T10611078
Loading
Personal Weather Stations






























Interactive Weather Map New forecast layout! Learn more

10-Day Weather Forecast

Advertisements
Track Severe Weather on mobile